Time;durP1;ratioP1;P1;durP2;ratioP2;P2;SDS_P1;SDS_P2;PMS_P1;PMS_P2;Temp;Humidity;BMP_temperature;BMP_pressure;BME280_temperature;BME280_humidity;BME280_pressure;Samples;Min_cycle;Max_cycle;Signal;HPM_P1;HPM_P2
2022/12/19 00:02:20;;;;;;;47.6;27.5;;;;;;;-12.2;82;100910;;;;
2022/12/19 00:12:20;;;;;;;47.6;27.5;;;;;;;-12.3;82.1;100900;;;;
2022/12/19 00:23:20;;;;;;;38.6;28.3;;;;;;;-12.5;82.1;100890;;;;
2022/12/19 00:33:20;;;;;;;38.6;28.3;;;;;;;-12.6;81.9;100890;;;;
2022/12/19 00:44:20;;;;;;;39.6;26.9;;;;;;;-12.5;82.2;100890;;;;
2022/12/19 00:54:20;;;;;;;39.6;26.9;;;;;;;-12.3;82.3;100880;;;;
2022/12/19 01:05:20;;;;;;;39.6;26.9;;;;;;;-12.4;81.6;100860;;;;
2022/12/19 01:15:20;;;;;;;51.2;28.9;;;;;;;-12.6;80.5;100840;;;;
2022/12/19 01:26:20;;;;;;;51.2;28.9;;;;;;;-12.6;80.4;100820;;;;
2022/12/19 01:36:20;;;;;;;51.2;28.9;;;;;;;-12.6;80.8;100810;;;;
2022/12/19 01:47:20;;;;;;;42.6;24.9;;;;;;;-12.6;80.6;100800;;;;
2022/12/19 01:58:20;;;;;;;42.6;24.9;;;;;;;-12.8;80.1;100780;;;;
2022/12/19 02:09:20;;;;;;;42.6;24.9;;;;;;;-13;80.1;100780;;;;
2022/12/19 02:19:20;;;;;;;38.3;24.1;;;;;;;-12.9;80.5;100770;;;;
2022/12/19 02:30:20;;;;;;;38.3;24.1;;;;;;;-12.9;81;100750;;;;
2022/12/19 02:40:20;;;;;;;38.3;24.1;;;;;;;-12.8;81.4;100740;;;;
2022/12/19 02:51:20;;;;;;;37.8;22.1;;;;;;;-12.7;81.2;100720;;;;
2022/12/19 03:02:20;;;;;;;37.8;22.1;;;;;;;-12.7;81.2;100710;;;;
2022/12/19 03:12:20;;;;;;;37.8;22.1;;;;;;;-12.6;81.4;100710;;;;
2022/12/19 03:23:20;;;;;;;39.4;24.1;;;;;;;-12.4;81.8;100700;;;;
2022/12/19 03:33:20;;;;;;;39.4;24.1;;;;;;;-12.3;81.3;100730;;;;
2022/12/19 03:44:20;;;;;;;40.6;25.4;;;;;;;-12.1;81.5;100740;;;;
2022/12/19 03:54:20;;;;;;;40.6;25.4;;;;;;;-12;81.2;100740;;;;
2022/12/19 04:05:20;;;;;;;40.6;25.4;;;;;;;-12.3;80.1;100740;;;;
2022/12/19 04:16:20;;;;;;;42.8;26.4;;;;;;;-12.2;79.7;100730;;;;
2022/12/19 04:26:20;;;;;;;42.8;26.4;;;;;;;-12.4;79.2;100710;;;;
2022/12/19 04:37:20;;;;;;;42.8;26.4;;;;;;;-12.5;79.1;100690;;;;
2022/12/19 04:47:20;;;;;;;38.3;24.2;;;;;;;-12.7;79.2;100680;;;;
2022/12/19 04:58:20;;;;;;;38.3;24.2;;;;;;;-12.6;79.8;100680;;;;
2022/12/19 05:09:20;;;;;;;38.3;24.2;;;;;;;-12.6;79.6;100680;;;;
2022/12/19 05:20:20;;;;;;;35.5;22.6;;;;;;;-12.8;79.2;100670;;;;
2022/12/19 05:31:20;;;;;;;35.5;22.6;;;;;;;-13;78.6;100660;;;;
2022/12/19 05:41:20;;;;;;;35.5;22.6;;;;;;;-13.3;79.3;100670;;;;
2022/12/19 05:51:20;;;;;;;45.1;25.1;;;;;;;-13.4;79.4;100670;;;;
2022/12/19 06:02:20;;;;;;;45.1;25.1;;;;;;;-13.3;82.2;100660;;;;
2022/12/19 06:12:20;;;;;;;31.6;17.7;;;;;;;-13.3;82.6;100660;;;;
2022/12/19 06:23:21;;;;;;;31.6;17.7;;;;;;;-13.3;82.4;100650;;;;
2022/12/19 06:34:21;;;;;;;31.6;17.7;;;;;;;-13.7;81.8;100630;;;;
2022/12/19 06:45:20;;;;;;;30.5;20.8;;;;;;;-13.4;81.7;100630;;;;
2022/12/19 06:55:20;;;;;;;30.5;20.8;;;;;;;-13.4;80.8;100650;;;;
2022/12/19 07:05:20;;;;;;;30.5;20.8;;;;;;;-13.3;80.5;100650;;;;
2022/12/19 07:16:20;;;;;;;38.7;24;;;;;;;-13.3;79.5;100650;;;;
2022/12/19 07:26:20;;;;;;;38.7;24;;;;;;;-13.3;79.3;100650;;;;
2022/12/19 07:37:20;;;;;;;38.7;24;;;;;;;-13.1;79.3;100640;;;;
2022/12/19 07:48:20;;;;;;;33;23.3;;;;;;;-12.9;79.1;100640;;;;
2022/12/19 07:58:20;;;;;;;33;23.3;;;;;;;-12.6;78.8;100630;;;;
2022/12/19 08:08:20;;;;;;;33;23.3;;;;;;;-12.1;79.7;100620;;;;
2022/12/19 08:18:20;;;;;;;57.4;30.9;;;;;;;-11.6;79.8;100620;;;;
2022/12/19 08:28:20;;;;;;;57.4;30.9;;;;;;;-11.6;80;100600;;;;
2022/12/19 08:39:20;;;;;;;57.4;30.9;;;;;;;-11.1;80.4;100600;;;;
2022/12/19 08:49:20;;;;;;;41.7;24.6;;;;;;;-11;80;100570;;;;
2022/12/19 08:59:20;;;;;;;41.7;24.6;;;;;;;-10.3;80.3;100560;;;;
2022/12/19 09:09:20;;;;;;;41.7;24.6;;;;;;;-9.8;79.9;100590;;;;
2022/12/19 09:20:20;;;;;;;46.2;24.3;;;;;;;-9.5;79.2;100580;;;;
2022/12/19 09:30:20;;;;;;;46.2;24.3;;;;;;;-9.1;79.5;100560;;;;
2022/12/19 09:40:20;;;;;;;46.2;24.3;;;;;;;-8.7;78.6;100530;;;;
2022/12/19 09:51:20;;;;;;;41.1;24.9;;;;;;;-8;78.9;100530;;;;
2022/12/19 10:02:20;;;;;;;41.1;24.9;;;;;;;-7.9;78.2;100540;;;;
2022/12/19 10:12:20;;;;;;;43.9;22.6;;;;;;;-7.3;78.3;100530;;;;
2022/12/19 10:22:20;;;;;;;43.9;22.6;;;;;;;-6.3;78.6;100500;;;;
2022/12/19 10:33:21;;;;;;;43.9;22.6;;;;;;;-6;77.1;100480;;;;
2022/12/19 10:43:20;;;;;;;42.8;25.6;;;;;;;-5.6;75.6;100460;;;;
2022/12/19 10:54:20;;;;;;;42.8;25.6;;;;;;;-4.5;76.6;100460;;;;
2022/12/19 11:04:20;;;;;;;42.8;25.6;;;;;;;-4.2;75.1;100430;;;;
2022/12/19 11:15:20;;;;;;;56.8;33.1;;;;;;;-4.1;75;100410;;;;
2022/12/19 11:25:20;;;;;;;56.8;33.1;;;;;;;-4.1;73.7;100380;;;;
2022/12/19 11:35:20;;;;;;;56.8;33.1;;;;;;;-3.6;74.3;100390;;;;
2022/12/19 11:46:20;;;;;;;53.4;31.8;;;;;;;-3.6;74.7;100380;;;;
2022/12/19 11:57:20;;;;;;;53.4;31.8;;;;;;;-3.4;73.8;100370;;;;
2022/12/19 12:08:20;;;;;;;53.4;31.8;;;;;;;-3.4;73.4;100350;;;;
2022/12/19 12:19:20;;;;;;;48.5;27;;;;;;;-3.2;73;100340;;;;
2022/12/19 12:30:20;;;;;;;48.5;27;;;;;;;-3.1;73.8;100330;;;;
2022/12/19 12:40:20;;;;;;;48.5;27;;;;;;;-3.2;73.9;100320;;;;
2022/12/19 12:51:20;;;;;;;52.9;30.5;;;;;;;-3.3;73.2;100310;;;;
2022/12/19 13:01:20;;;;;;;52.9;30.5;;;;;;;-3.7;74;100280;;;;
2022/12/19 13:12:58;;;;;;;70.2;36;;;;;;;-4;74.8;100280;;;;
2022/12/19 13:21:20;;;;;;;70.2;36;;;;;;;-4.1;75.6;100290;;;;
2022/12/19 13:31:20;;;;;;;70.2;36;;;;;;;-4.3;75.2;100290;;;;
2022/12/19 13:52:21;;;;;;;146.3;77.1;;;;;;;-5.2;76.3;100260;;;;
2022/12/19 14:03:20;;;;;;;146.3;77.1;;;;;;;-5.5;77;100240;;;;
2022/12/19 14:15:24;;;;;;;51.8;30.1;;;;;;;-5.8;77.8;100230;;;;
2022/12/19 14:24:20;;;;;;;51.8;30.1;;;;;;;-6.2;78;100230;;;;
2022/12/19 14:34:20;;;;;;;51.8;30.1;;;;;;;-6.4;78.6;100220;;;;
2022/12/19 14:45:20;;;;;;;53.6;30.5;;;;;;;-6.8;78.4;100210;;;;
2022/12/19 14:56:21;;;;;;;53.6;30.5;;;;;;;-7.2;78.2;100200;;;;
2022/12/19 15:06:20;;;;;;;53.6;30.5;;;;;;;-7.8;78.1;100180;;;;
2022/12/19 15:16:20;;;;;;;47.1;28.7;;;;;;;-8;78.8;100170;;;;
2022/12/19 15:27:20;;;;;;;47.1;28.7;;;;;;;-8.2;79.3;100170;;;;
2022/12/19 15:38:20;;;;;;;47.1;28.7;;;;;;;-8.4;79.7;100160;;;;
2022/12/19 15:48:20;;;;;;;58.5;36;;;;;;;-8.6;80.5;100150;;;;
2022/12/19 15:58:20;;;;;;;58.5;36;;;;;;;-8.8;80.5;100140;;;;
2022/12/19 16:08:20;;;;;;;58.5;36;;;;;;;-9;80.3;100130;;;;
2022/12/19 16:19:20;;;;;;;73.6;41;;;;;;;-9.1;81;100120;;;;
2022/12/19 16:30:20;;;;;;;73.6;41;;;;;;;-9.1;81.8;100110;;;;
2022/12/19 16:40:21;;;;;;;73.7;42.5;;;;;;;-9.2;82;100100;;;;
2022/12/19 16:50:20;;;;;;;73.7;42.5;;;;;;;-9.1;82.6;100090;;;;
2022/12/19 17:01:20;;;;;;;73.7;42.5;;;;;;;-9.1;82.3;100070;;;;
2022/12/19 17:11:20;;;;;;;83.3;44.4;;;;;;;-9;81.9;100080;;;;
2022/12/19 17:22:20;;;;;;;83.3;44.4;;;;;;;-9.1;81.5;100080;;;;
2022/12/19 17:33:21;;;;;;;83.3;44.4;;;;;;;-9.2;81.5;100080;;;;
2022/12/19 17:43:20;;;;;;;103.1;57.1;;;;;;;-9.3;81.5;100070;;;;
2022/12/19 17:53:20;;;;;;;103.1;57.1;;;;;;;-9.4;82.1;100060;;;;
2022/12/19 18:04:20;;;;;;;103.1;57.1;;;;;;;-9.2;82.7;100060;;;;
2022/12/19 18:15:20;;;;;;;75.3;44.8;;;;;;;-9.2;82.2;100050;;;;
2022/12/19 18:25:20;;;;;;;75.3;44.8;;;;;;;-9;82.3;100040;;;;
2022/12/19 18:36:20;;;;;;;75.3;44.8;;;;;;;-8.9;81.9;100030;;;;
2022/12/19 18:47:20;;;;;;;75.8;44.7;;;;;;;-8.7;81.7;100020;;;;
2022/12/19 18:57:20;;;;;;;75.8;44.7;;;;;;;-8.6;81.6;100000;;;;
2022/12/19 19:07:20;;;;;;;75.8;44.7;;;;;;;-8.3;81.6;99980;;;;
2022/12/19 19:18:20;;;;;;;74.3;45.2;;;;;;;-8;81.7;99970;;;;
2022/12/19 19:29:20;;;;;;;74.3;45.2;;;;;;;-7.8;81.5;99970;;;;
2022/12/19 19:40:20;;;;;;;85.2;51.9;;;;;;;-7.4;81.9;99960;;;;
2022/12/19 19:50:20;;;;;;;85.2;51.9;;;;;;;-7.1;82.2;99950;;;;
2022/12/19 20:01:20;;;;;;;85.2;51.9;;;;;;;-6.7;82.8;99950;;;;
2022/12/19 20:12:20;;;;;;;123.9;66.4;;;;;;;-6.4;82.4;99960;;;;
2022/12/19 20:22:20;;;;;;;123.9;66.4;;;;;;;-6.3;82.3;99950;;;;
2022/12/19 20:33:20;;;;;;;123.9;66.4;;;;;;;-6;82.1;99940;;;;
2022/12/19 20:44:20;;;;;;;146.9;79;;;;;;;-5.8;82.2;99940;;;;
2022/12/19 20:55:21;;;;;;;146.9;79;;;;;;;-5.6;82.6;99910;;;;
2022/12/19 21:05:20;;;;;;;146.9;79;;;;;;;-5.4;82.9;99910;;;;
2022/12/19 21:15:21;;;;;;;118.4;62.7;;;;;;;-5.2;83.2;99910;;;;
2022/12/19 21:26:20;;;;;;;118.4;62.7;;;;;;;-4.9;83.3;99900;;;;
2022/12/19 21:36:20;;;;;;;118.4;62.7;;;;;;;-4.9;81.9;99890;;;;
2022/12/19 21:47:21;;;;;;;159.8;92;;;;;;;-5.1;81.1;99870;;;;
2022/12/19 21:58:20;;;;;;;159.8;92;;;;;;;-4.9;81.6;99860;;;;
2022/12/19 22:08:20;;;;;;;143.3;84.8;;;;;;;-4.8;81.4;99850;;;;
2022/12/19 22:19:21;;;;;;;143.3;84.8;;;;;;;-4.7;81.1;99840;;;;
2022/12/19 22:29:20;;;;;;;143.3;84.8;;;;;;;-4.8;81.4;99840;;;;
2022/12/19 22:39:21;;;;;;;158.4;97;;;;;;;-4.9;82;99820;;;;
2022/12/19 22:50:20;;;;;;;158.4;97;;;;;;;-4.7;82.7;99810;;;;
2022/12/19 23:01:20;;;;;;;158.4;97;;;;;;;-4.4;83;99810;;;;
2022/12/19 23:11:20;;;;;;;148.1;85.3;;;;;;;-4.3;82.5;99810;;;;
2022/12/19 23:21:20;;;;;;;148.1;85.3;;;;;;;-4.2;83.2;99800;;;;
2022/12/19 23:32:20;;;;;;;148.1;85.3;;;;;;;-4;83.7;99780;;;;
2022/12/19 23:42:20;;;;;;;135.4;82.6;;;;;;;-4;84;99770;;;;
2022/12/19 23:52:20;;;;;;;135.4;82.6;;;;;;;-3.7;84.4;99770;;;;
